Alaska Titan — WDE4789 — position and weather

sailwx.info

Track history (hours):
 
Tides and Currents Weather Stations Pressure Air Temp Water Temp Dewpoint Dewpoint Depression Visibility Wind Speed Wind Dir Waves Ship Positions

Alaska Titan

Owner: WESTERN TOWBOAT CO, Seattle, WA. More information available from US FCC via Universal Licensing System and Coast Guard Vessel Documentation Center.

Last reported at 2018-Feb-17 17:40 UTC. Time now 2018-Feb-19 00:13 UTC.
Position N 54°27' W 131°10'.

Length 40 m; draft 6 m.

Type: Tow > 200 m length. MMSI: 367357890.

Date/timePositionNaut miles runAvg speedWind from/ knotsBaromVisibWave heightAir tempDewpointWater temp
2018-Feb-17 17:40N 54°27' W 131°10'2 7.9
2018-Feb-17 17:26N 54°26' W 131°08'4 7.9
2018-Feb-17 16:59N 54°23' W 131°04'4 8.3
2018-Feb-17 16:30N 54°20' W 130°58'4 8.8
2018-Feb-17 16:00N 54°18' W 130°52'4 8.6
2018-Feb-17 15:30N 54°16' W 130°46'4 8.4
2018-Feb-17 15:00N 54°13' W 130°40'4 8.4
2018-Feb-17 14:30N 54°11' W 130°34'5 9.2
2018-Feb-17 14:00N 54°10' W 130°27'5 9.7
2018-Feb-17 13:30N 54°06' W 130°21'5 9.6
2018-Feb-17 13:00N 54°03' W 130°15'5 9.5
2018-Feb-17 12:30N 53°58' W 130°12'4 8.8
2018-Feb-17 12:00N 53°54' W 130°08'5 9.5
2018-Feb-17 11:30N 53°51' W 130°03'5 9.8
2018-Feb-17 11:00N 53°48' W 129°57'98 8.3
2018-Feb-16 23:10N 52°24' W 128°30'9 7.8
2018-Feb-16 22:00N 52°16' W 128°25'8 9.1
2018-Feb-16 21:10N 52°16' W 128°12'2 9.7
2018-Feb-16 21:00N 52°16' W 128°10'19 6.3
2018-Feb-16 18:01N 51°60' W 127°56'010.1
2018-Feb-16 18:00N 51°60' W 127°56'510.0
2018-Feb-16 17:30N 51°55' W 127°56'5 9.7
2018-Feb-16 17:00N 51°50' W 127°55'5 9.9
2018-Feb-16 16:30N 51°45' W 127°54'5 9.7
2018-Feb-16 16:00N 51°40' W 127°54'5 9.8
2018-Feb-16 15:30N 51°35' W 127°53'5 9.8
2018-Feb-16 15:00N 51°30' W 127°52'6 9.5
2018-Feb-16 14:21N 51°24' W 127°53'11 9.3
2018-Feb-16 13:13N 51°14' W 127°52'2 9.7
2018-Feb-16 13:00N 51°12' W 127°51'5 9.5
2018-Feb-16 12:30N 51°07' W 127°48'5 9.8
2018-Feb-16 12:00N 51°04' W 127°42'5 9.6
2018-Feb-16 11:29N 51°01' W 127°36'4 9.5
2018-Feb-16 11:00N 50°58' W 127°31'5 9.4
2018-Feb-16 10:30N 50°55' W 127°25'5 9.3
2018-Feb-16 10:00N 50°52' W 127°19'5 9.5
2018-Feb-16 09:30N 50°49' W 127°14'6 9.4
2018-Feb-16 08:50N 50°45' W 127°06'5 6.9
2018-Feb-16 08:02N 50°43' W 126°58'3 7.8
2018-Feb-16 07:43N 50°42' W 126°54'3 8.8
2018-Feb-16 07:20N 50°39' W 126°50'5610.3
2018-Feb-16 01:53N 50°20' W 125°27'3 8.9
2018-Feb-16 01:30N 50°18' W 125°25'5 9.9
2018-Feb-16 01:00N 50°13' W 125°22'4 9.0
2018-Feb-16 00:31N 50°08' W 125°21'3 6.9
2018-Feb-16 00:01N 50°06' W 125°17'3 6.9
2018-Feb-15 23:31N 50°03' W 125°14'3 5.5
2018-Feb-15 23:01N 50°01' W 125°12'3 5.3
2018-Feb-15 22:30N 49°58' W 125°11'4 8.9
2018-Feb-15 22:00N 49°55' W 125°05'5 9.8
2018-Feb-15 21:30N 49°52' W 124°60'5 9.1
2018-Feb-15 21:01N 49°49' W 124°54'4 7.6
2018-Feb-15 20:30N 49°47' W 124°50'3 6.9
2018-Feb-15 20:00N 49°45' W 124°45'4 7.2
2018-Feb-15 19:30N 49°43' W 124°41'5 9.0
2018-Feb-15 18:59N 49°40' W 124°35'4 6.6
2018-Feb-15 18:27N 49°38' W 124°30'3 6.8
2018-Feb-15 17:59N 49°36' W 124°26'4 7.1
2018-Feb-15 17:29N 49°34' W 124°22'26 8.7
2018-Feb-15 14:29N 49°20' W 123°49'510.0
2018-Feb-15 13:57N 49°17' W 123°42'4 9.9
2018-Feb-15 13:30N 49°14' W 123°37'5 9.8
2018-Feb-15 13:00N 49°10' W 123°31'5 9.7
2018-Feb-15 12:30N 49°07' W 123°26'5 9.7
2018-Feb-15 11:57N 49°04' W 123°20'4 9.7
2018-Feb-15 11:30N 49°01' W 123°15'510.0
2018-Feb-15 10:59N 48°57' W 123°09'5 9.8
2018-Feb-15 10:28N 48°54' W 123°03'5 9.9
2018-Feb-15 09:58N 48°51' W 122°57'6 9.7
2018-Feb-15 09:18N 48°47' W 122°50'310.1
2018-Feb-15 08:58N 48°45' W 122°45'510.6
2018-Feb-15 08:31N 48°40' W 122°42'5 9.6
2018-Feb-15 08:00N 48°36' W 122°45'5 9.4
2018-Feb-15 07:30N 48°31' W 122°44'4 8.1
2018-Feb-15 07:00N 48°27' W 122°44'5 7.3
2018-Feb-15 06:23N 48°23' W 122°44'25 9.9
2018-Feb-15 03:53N 47°59' W 122°35'411.6
2018-Feb-15 03:31N 47°56' W 122°30'510.5
2018-Feb-15 03:01N 47°51' W 122°27'510.0
2018-Feb-15 02:31N 47°46' W 122°26'5 9.8
2018-Feb-15 02:00N 47°41' W 122°27'4 8.8
2018-Feb-15 01:30N 47°37' W 122°24'2 4.8
2018-Feb-15 01:00N 47°36' W 122°21'0 0.7
2018-Feb-15 00:30N 47°35' W 122°21'0 0.1
2018-Feb-15 00:01N 47°35' W 122°21'1 2.1
2018-Feb-14 23:30N 47°36' W 122°23'5 9.6
2018-Feb-14 23:01N 47°40' W 122°27'2 3.6
2018-Feb-14 22:30N 47°40' W 122°24'2 3.0
2018-Feb-14 22:00N 47°39' W 122°22'0 0.1
2018-Feb-14 21:31N 47°39' W 122°22'0 0.1
2018-Feb-14 21:00N 47°39' W 122°22'  
2018-Feb-08 06:30N 47°39' W 122°22'1 2.8
2018-Feb-08 06:00N 47°40' W 122°24'2 3.3
2018-Feb-08 05:30N 47°40' W 122°26'6 6.0
2018-Feb-08 04:30N 47°35' W 122°21'1 1.7
2018-Feb-08 04:00N 47°36' W 122°22'3 6.9
2018-Feb-08 03:30N 47°38' W 122°26'4 8.6
2018-Feb-08 03:00N 47°42' W 122°28'5 9.4
2018-Feb-08 02:30N 47°47' W 122°27'9 9.2
2018-Feb-08 01:30N 47°56' W 122°31'23 7.3
2018-Feb-07 22:19N 48°16' W 122°48'4 9.6
2018-Feb-07 21:52N 48°20' W 122°46'4 9.9
2018-Feb-07 21:30N 48°24' W 122°45'  
Track history (hours):
 
Tides and Currents Weather Stations Pressure Air Temp Water Temp Dewpoint Dewpoint Depression Visibility Wind Speed Wind Dir Waves Ship Positions

Alaska Titan

Owner: WESTERN TOWBOAT CO, Seattle, WA. More information available from US FCC via Universal Licensing System and Coast Guard Vessel Documentation Center.

Last reported at 2018-Feb-17 17:40 UTC. Time now 2018-Feb-19 00:13 UTC.
Position N 54°27' W 131°10'.

Length 40 m; draft 6 m.

Type: Tow > 200 m length. MMSI: 367357890.

Date/timePositionNaut miles runAvg speedWind from/ knotsBaromVisibWave heightAir tempDewpointWater temp
2018-Feb-17 17:40N 54°27' W 131°10'2 7.9
2018-Feb-17 17:26N 54°26' W 131°08'4 7.9
2018-Feb-17 16:59N 54°23' W 131°04'4 8.3
2018-Feb-17 16:30N 54°20' W 130°58'4 8.8
2018-Feb-17 16:00N 54°18' W 130°52'4 8.6
2018-Feb-17 15:30N 54°16' W 130°46'4 8.4
2018-Feb-17 15:00N 54°13' W 130°40'4 8.4
2018-Feb-17 14:30N 54°11' W 130°34'5 9.2
2018-Feb-17 14:00N 54°10' W 130°27'5 9.7
2018-Feb-17 13:30N 54°06' W 130°21'5 9.6
2018-Feb-17 13:00N 54°03' W 130°15'5 9.5
2018-Feb-17 12:30N 53°58' W 130°12'4 8.8
2018-Feb-17 12:00N 53°54' W 130°08'5 9.5
2018-Feb-17 11:30N 53°51' W 130°03'5 9.8
2018-Feb-17 11:00N 53°48' W 129°57'98 8.3
2018-Feb-16 23:10N 52°24' W 128°30'9 7.8
2018-Feb-16 22:00N 52°16' W 128°25'8 9.1
2018-Feb-16 21:10N 52°16' W 128°12'2 9.7
2018-Feb-16 21:00N 52°16' W 128°10'19 6.3
2018-Feb-16 18:01N 51°60' W 127°56'010.1
2018-Feb-16 18:00N 51°60' W 127°56'510.0
2018-Feb-16 17:30N 51°55' W 127°56'5 9.7
2018-Feb-16 17:00N 51°50' W 127°55'5 9.9
2018-Feb-16 16:30N 51°45' W 127°54'5 9.7
2018-Feb-16 16:00N 51°40' W 127°54'5 9.8
2018-Feb-16 15:30N 51°35' W 127°53'5 9.8
2018-Feb-16 15:00N 51°30' W 127°52'6 9.5
2018-Feb-16 14:21N 51°24' W 127°53'11 9.3
2018-Feb-16 13:13N 51°14' W 127°52'2 9.7
2018-Feb-16 13:00N 51°12' W 127°51'5 9.5
2018-Feb-16 12:30N 51°07' W 127°48'5 9.8
2018-Feb-16 12:00N 51°04' W 127°42'5 9.6
2018-Feb-16 11:29N 51°01' W 127°36'4 9.5
2018-Feb-16 11:00N 50°58' W 127°31'5 9.4
2018-Feb-16 10:30N 50°55' W 127°25'5 9.3
2018-Feb-16 10:00N 50°52' W 127°19'5 9.5
2018-Feb-16 09:30N 50°49' W 127°14'6 9.4
2018-Feb-16 08:50N 50°45' W 127°06'5 6.9
2018-Feb-16 08:02N 50°43' W 126°58'3 7.8
2018-Feb-16 07:43N 50°42' W 126°54'3 8.8
2018-Feb-16 07:20N 50°39' W 126°50'5610.3
2018-Feb-16 01:53N 50°20' W 125°27'3 8.9
2018-Feb-16 01:30N 50°18' W 125°25'5 9.9
2018-Feb-16 01:00N 50°13' W 125°22'4 9.0
2018-Feb-16 00:31N 50°08' W 125°21'3 6.9
2018-Feb-16 00:01N 50°06' W 125°17'3 6.9
2018-Feb-15 23:31N 50°03' W 125°14'3 5.5
2018-Feb-15 23:01N 50°01' W 125°12'3 5.3
2018-Feb-15 22:30N 49°58' W 125°11'4 8.9
2018-Feb-15 22:00N 49°55' W 125°05'5 9.8
2018-Feb-15 21:30N 49°52' W 124°60'5 9.1
2018-Feb-15 21:01N 49°49' W 124°54'4 7.6
2018-Feb-15 20:30N 49°47' W 124°50'3 6.9
2018-Feb-15 20:00N 49°45' W 124°45'4 7.2
2018-Feb-15 19:30N 49°43' W 124°41'5 9.0
2018-Feb-15 18:59N 49°40' W 124°35'4 6.6
2018-Feb-15 18:27N 49°38' W 124°30'3 6.8
2018-Feb-15 17:59N 49°36' W 124°26'4 7.1
2018-Feb-15 17:29N 49°34' W 124°22'26 8.7
2018-Feb-15 14:29N 49°20' W 123°49'510.0
2018-Feb-15 13:57N 49°17' W 123°42'4 9.9
2018-Feb-15 13:30N 49°14' W 123°37'5 9.8
2018-Feb-15 13:00N 49°10' W 123°31'5 9.7
2018-Feb-15 12:30N 49°07' W 123°26'5 9.7
2018-Feb-15 11:57N 49°04' W 123°20'4 9.7
2018-Feb-15 11:30N 49°01' W 123°15'510.0
2018-Feb-15 10:59N 48°57' W 123°09'5 9.8
2018-Feb-15 10:28N 48°54' W 123°03'5 9.9
2018-Feb-15 09:58N 48°51' W 122°57'6 9.7
2018-Feb-15 09:18N 48°47' W 122°50'310.1
2018-Feb-15 08:58N 48°45' W 122°45'510.6
2018-Feb-15 08:31N 48°40' W 122°42'5 9.6
2018-Feb-15 08:00N 48°36' W 122°45'5 9.4
2018-Feb-15 07:30N 48°31' W 122°44'4 8.1
2018-Feb-15 07:00N 48°27' W 122°44'5 7.3
2018-Feb-15 06:23N 48°23' W 122°44'25 9.9
2018-Feb-15 03:53N 47°59' W 122°35'411.6
2018-Feb-15 03:31N 47°56' W 122°30'510.5
2018-Feb-15 03:01N 47°51' W 122°27'510.0
2018-Feb-15 02:31N 47°46' W 122°26'5 9.8
2018-Feb-15 02:00N 47°41' W 122°27'4 8.8
2018-Feb-15 01:30N 47°37' W 122°24'2 4.8
2018-Feb-15 01:00N 47°36' W 122°21'0 0.7
2018-Feb-15 00:30N 47°35' W 122°21'0 0.1
2018-Feb-15 00:01N 47°35' W 122°21'1 2.1
2018-Feb-14 23:30N 47°36' W 122°23'5 9.6
2018-Feb-14 23:01N 47°40' W 122°27'2 3.6
2018-Feb-14 22:30N 47°40' W 122°24'2 3.0
2018-Feb-14 22:00N 47°39' W 122°22'0 0.1
2018-Feb-14 21:31N 47°39' W 122°22'0 0.1
2018-Feb-14 21:00N 47°39' W 122°22'  
2018-Feb-08 06:30N 47°39' W 122°22'1 2.8
2018-Feb-08 06:00N 47°40' W 122°24'2 3.3
2018-Feb-08 05:30N 47°40' W 122°26'6 6.0
2018-Feb-08 04:30N 47°35' W 122°21'1 1.7
2018-Feb-08 04:00N 47°36' W 122°22'3 6.9
2018-Feb-08 03:30N 47°38' W 122°26'4 8.6
2018-Feb-08 03:00N 47°42' W 122°28'5 9.4
2018-Feb-08 02:30N 47°47' W 122°27'9 9.2
2018-Feb-08 01:30N 47°56' W 122°31'23 7.3
2018-Feb-07 22:19N 48°16' W 122°48'4 9.6
2018-Feb-07 21:52N 48°20' W 122°46'4 9.9
2018-Feb-07 21:30N 48°24' W 122°45'  

Dump ship's entire track history